createdAt,value
2018-10-05T00:02:27.051Z,55.05
2018-10-05T00:04:54.391Z,54.86
2018-10-05T00:07:21.763Z,54.55
2018-10-05T00:09:49.049Z,53.96
2018-10-05T00:12:16.369Z,54.80
2018-10-05T00:14:43.645Z,54.80
2018-10-05T00:17:10.974Z,54.31
2018-10-05T00:19:38.276Z,54.03
2018-10-05T00:22:05.808Z,55.08
2018-10-05T00:24:33.164Z,54.51
2018-10-05T00:27:00.433Z,54.49
2018-10-05T00:29:27.760Z,54.84
2018-10-05T00:31:55.061Z,54.77
2018-10-05T00:34:22.419Z,54.73
2018-10-05T00:36:49.721Z,54.00
2018-10-05T00:39:17.052Z,54.65
2018-10-05T00:41:44.342Z,54.88
2018-10-05T00:44:11.626Z,55.00
2018-10-05T00:46:38.913Z,54.95
2018-10-05T00:49:06.169Z,55.17
2018-10-05T00:51:33.586Z,54.79
2018-10-05T00:54:00.972Z,55.08
2018-10-05T00:56:28.310Z,55.48
2018-10-05T00:58:55.638Z,55.28
2018-10-05T01:01:22.905Z,55.58
2018-10-05T01:03:50.232Z,56.00
2018-10-05T01:06:17.506Z,55.36
2018-10-05T01:08:44.823Z,55.86
2018-10-05T01:11:12.076Z,55.76
2018-10-05T01:13:39.412Z,55.99
2018-10-05T01:16:06.757Z,56.94
2018-10-05T01:18:34.034Z,56.11
2018-10-05T01:21:01.468Z,56.05
2018-10-05T01:23:28.744Z,56.47
2018-10-05T01:25:56.068Z,56.19
2018-10-05T01:28:23.347Z,56.58
2018-10-05T01:30:50.719Z,56.15
2018-10-05T01:33:17.969Z,56.09
2018-10-05T01:35:45.285Z,56.57
2018-10-05T01:38:12.667Z,55.92
2018-10-05T01:40:39.898Z,56.42
2018-10-05T01:43:07.227Z,55.50
2018-10-05T01:45:34.529Z,55.16
2018-10-05T01:48:01.836Z,55.73
2018-10-05T01:50:29.131Z,55.50
2018-10-05T01:52:56.551Z,54.88
2018-10-05T01:55:23.881Z,55.02
2018-10-05T01:57:51.144Z,55.42
2018-10-05T02:00:18.460Z,55.28
2018-10-05T02:02:45.861Z,55.06
2018-10-05T02:05:13.118Z,55.48
2018-10-05T02:07:40.476Z,54.92
2018-10-05T02:10:07.770Z,54.81
2018-10-05T02:12:35.101Z,55.17
2018-10-05T02:15:02.411Z,55.10
2018-10-05T02:17:29.756Z,55.03
2018-10-05T02:19:57.008Z,55.05
2018-10-05T02:22:24.310Z,54.23
2018-10-05T02:24:51.584Z,54.34
2018-10-05T02:27:18.908Z,54.77
2018-10-05T02:29:46.188Z,55.38
2018-10-05T02:32:13.539Z,54.91
2018-10-05T02:34:40.823Z,55.60
2018-10-05T02:37:08.176Z,55.36
2018-10-05T02:39:35.416Z,56.05
2018-10-05T02:42:03.577Z,55.31
2018-10-05T02:44:30.858Z,55.26
2018-10-05T02:46:58.270Z,55.17
2018-10-05T02:49:25.563Z,54.51
2018-10-05T02:51:52.858Z,55.45
2018-10-05T02:54:20.104Z,55.31
2018-10-05T02:56:47.384Z,55.59
2018-10-05T02:59:14.703Z,55.01
2018-10-05T03:01:53.485Z,55.60
2018-10-05T03:04:20.753Z,55.22
2018-10-05T03:06:48.067Z,55.08
2018-10-05T03:09:15.341Z,54.81
2018-10-05T03:11:42.745Z,54.87
2018-10-05T03:14:10.019Z,54.78
2018-10-05T03:16:37.288Z,54.57
2018-10-05T03:19:04.591Z,54.98
2018-10-05T03:21:31.846Z,55.31
2018-10-05T03:23:59.137Z,55.71
2018-10-05T03:26:26.419Z,55.17
2018-10-05T03:28:53.703Z,54.30
2018-10-05T03:31:21.005Z,54.74
2018-10-05T03:33:48.282Z,54.71
2018-10-05T03:36:15.580Z,54.36
2018-10-05T03:38:42.841Z,55.31
2018-10-05T03:41:10.226Z,54.98
2018-10-05T03:43:37.528Z,55.25
2018-10-05T03:46:04.821Z,53.70
2018-10-05T03:48:32.125Z,55.46
2018-10-05T03:50:59.417Z,55.54
2018-10-05T03:53:26.699Z,55.25
2018-10-05T03:55:53.985Z,54.97
2018-10-05T03:58:22.043Z,54.33
2018-10-05T04:00:49.379Z,54.48
2018-10-05T04:03:16.660Z,55.26
2018-10-05T04:05:43.913Z,54.31
2018-10-05T04:08:11.294Z,54.98
2018-10-05T04:10:38.575Z,55.08
2018-10-05T04:13:05.984Z,55.24
2018-10-05T04:15:33.333Z,55.07
2018-10-05T04:18:00.710Z,55.00
2018-10-05T04:20:27.978Z,55.47
2018-10-05T04:22:55.331Z,55.04
2018-10-05T04:25:22.625Z,54.34
2018-10-05T04:27:49.902Z,55.11
2018-10-05T04:30:17.218Z,55.37
2018-10-05T04:32:53.489Z,54.71
2018-10-05T04:35:20.775Z,55.43
2018-10-05T04:37:48.057Z,54.74
2018-10-05T04:40:15.394Z,54.73
2018-10-05T04:42:42.689Z,54.69
2018-10-05T04:45:10.025Z,54.97
2018-10-05T04:47:37.353Z,55.59
2018-10-05T04:50:04.681Z,55.49
2018-10-05T04:52:31.972Z,55.73
2018-10-05T04:54:59.363Z,55.32
2018-10-05T04:57:26.711Z,55.81
2018-10-05T04:59:53.995Z,55.66
2018-10-05T05:02:21.349Z,55.01
2018-10-05T05:04:48.629Z,55.22
2018-10-05T05:07:15.934Z,55.24
2018-10-05T05:09:43.225Z,54.99
2018-10-05T05:12:10.575Z,54.88
2018-10-05T05:14:37.840Z,54.90
2018-10-05T05:17:05.136Z,55.00
2018-10-05T05:19:32.443Z,54.76
2018-10-05T05:21:59.672Z,54.63
2018-10-05T05:24:26.959Z,55.12
2018-10-05T05:26:54.304Z,55.11
2018-10-05T05:29:21.600Z,54.89
2018-10-05T05:31:48.886Z,55.08
2018-10-05T05:34:16.163Z,55.46
2018-10-05T05:36:43.485Z,55.83
2018-10-05T05:39:10.778Z,56.02
2018-10-05T05:41:38.126Z,57.01
2018-10-05T05:44:05.458Z,55.81
2018-10-05T05:46:32.984Z,56.36
2018-10-05T05:49:00.322Z,56.75
2018-10-05T05:51:27.610Z,57.79
2018-10-05T05:53:54.995Z,56.77
2018-10-05T05:56:22.263Z,57.58
2018-10-05T05:58:49.651Z,57.37
2018-10-05T06:01:16.992Z,57.97
2018-10-05T06:03:44.294Z,57.43
2018-10-05T06:06:11.654Z,57.77
2018-10-05T06:08:38.907Z,58.47
2018-10-05T06:11:06.779Z,58.78
2018-10-05T06:13:34.090Z,58.74
2018-10-05T06:16:01.478Z,58.13
2018-10-05T06:18:28.744Z,58.45
2018-10-05T06:20:56.072Z,57.34
2018-10-05T06:23:23.912Z,56.97
2018-10-05T06:25:51.277Z,57.42
2018-10-05T06:28:18.642Z,57.62
2018-10-05T06:30:45.929Z,57.85
2018-10-05T06:33:13.230Z,57.11
2018-10-05T06:35:40.516Z,57.42
2018-10-05T06:38:07.947Z,57.23
2018-10-05T06:40:35.314Z,57.12
2018-10-05T06:43:02.579Z,57.06
2018-10-05T06:45:29.926Z,57.49
2018-10-05T06:47:57.194Z,57.10
2018-10-05T06:50:24.722Z,57.53
2018-10-05T06:52:52.490Z,57.79
2018-10-05T06:55:19.858Z,57.44
2018-10-05T06:57:47.144Z,57.24
2018-10-05T07:00:14.539Z,57.24
2018-10-05T07:02:50.073Z,56.57
2018-10-05T07:05:17.379Z,56.82
2018-10-05T07:07:44.775Z,56.42
2018-10-05T07:10:11.983Z,56.56
2018-10-05T07:12:39.329Z,57.00
2018-10-05T07:15:06.672Z,56.71
2018-10-05T07:17:33.983Z,56.98
2018-10-05T07:20:01.500Z,56.86
2018-10-05T07:22:28.806Z,58.14
2018-10-05T07:24:56.107Z,58.23
2018-10-05T07:27:23.500Z,57.79
2018-10-05T07:29:50.750Z,57.56
2018-10-05T07:32:18.119Z,57.34
2018-10-05T07:34:45.457Z,58.00
2018-10-05T07:37:12.790Z,57.81
2018-10-05T07:39:40.019Z,57.08
2018-10-05T07:42:07.334Z,57.05
2018-10-05T07:44:34.684Z,56.50
2018-10-05T07:47:01.959Z,57.33
2018-10-05T07:49:29.343Z,57.04
2018-10-05T07:51:56.665Z,56.68
2018-10-05T07:54:23.969Z,56.81
2018-10-05T07:56:51.313Z,56.96
2018-10-05T07:59:18.605Z,57.03
2018-10-05T08:01:45.985Z,57.11
2018-10-05T08:04:13.287Z,56.68
2018-10-05T08:06:40.588Z,56.98
2018-10-05T08:09:07.874Z,56.89
2018-10-05T08:11:35.197Z,56.61
2018-10-05T08:14:02.528Z,56.39
2018-10-05T08:16:29.800Z,55.83
2018-10-05T08:18:57.120Z,56.27
2018-10-05T08:21:24.437Z,56.20
2018-10-05T08:23:51.777Z,55.23
2018-10-05T08:26:19.416Z,55.20
2018-10-05T08:28:46.926Z,55.05
2018-10-05T08:31:14.279Z,55.05
2018-10-05T08:33:41.684Z,55.44
2018-10-05T08:36:09.063Z,54.61
2018-10-05T08:38:36.438Z,53.58
2018-10-05T08:41:03.787Z,53.49
2018-10-05T08:43:31.066Z,53.12
2018-10-05T08:45:58.359Z,51.86
2018-10-05T08:48:25.657Z,52.83
2018-10-05T08:50:53.063Z,51.72
2018-10-05T08:53:20.574Z,52.68
2018-10-05T08:55:47.954Z,51.77
2018-10-05T08:58:15.367Z,52.07
2018-10-05T09:00:42.736Z,50.96
2018-10-05T09:03:10.120Z,51.76
2018-10-05T09:05:37.515Z,51.50
2018-10-05T09:08:05.059Z,49.81
2018-10-05T09:10:32.445Z,50.96
2018-10-05T09:12:59.767Z,50.00
2018-10-05T09:15:27.335Z,49.62
2018-10-05T09:17:54.729Z,47.71
2018-10-05T09:20:22.191Z,49.10
2018-10-05T09:22:49.527Z,47.52
2018-10-05T09:25:16.950Z,48.22
2018-10-05T09:27:44.260Z,47.30
2018-10-05T09:30:12.094Z,46.81
2018-10-05T09:32:39.449Z,46.88
2018-10-05T09:35:06.727Z,46.50
2018-10-05T09:37:34.216Z,46.54
2018-10-05T09:40:01.506Z,45.53
2018-10-05T09:42:28.963Z,45.80
2018-10-05T09:44:56.832Z,45.83
2018-10-05T09:47:24.537Z,45.74
2018-10-05T09:49:51.795Z,45.49
2018-10-05T09:52:19.207Z,45.06
2018-10-05T09:54:46.412Z,45.35
2018-10-05T09:59:40.502Z,44.51
2018-10-05T10:02:13.456Z,44.69
2018-10-05T10:04:40.779Z,44.67
2018-10-05T10:07:08.993Z,44.90
2018-10-05T10:09:36.402Z,45.18
2018-10-05T10:12:03.678Z,43.98
2018-10-05T10:14:31.124Z,44.84
2018-10-05T10:16:58.362Z,44.16
2018-10-05T10:19:25.696Z,43.52
2018-10-05T10:21:53.125Z,44.75
2018-10-05T10:24:20.570Z,43.88
2018-10-05T10:26:47.968Z,42.50
2018-10-05T10:29:15.357Z,43.54
2018-10-05T10:31:42.695Z,43.59
2018-10-05T10:34:10.147Z,44.04
2018-10-05T10:36:37.423Z,46.99
2018-10-05T10:39:06.720Z,45.96
2018-10-05T10:41:33.997Z,43.86
2018-10-05T10:44:01.346Z,43.27
2018-10-05T10:46:28.618Z,43.46
2018-10-05T10:48:55.926Z,44.47
2018-10-05T10:51:23.328Z,41.56
2018-10-05T10:53:50.755Z,41.35
2018-10-05T10:56:18.013Z,43.31
2018-10-05T10:58:45.291Z,42.59
2018-10-05T11:01:12.596Z,41.66
2018-10-05T11:03:39.944Z,42.50
2018-10-05T11:06:08.834Z,39.76
2018-10-05T11:08:36.157Z,38.49
2018-10-05T11:11:03.520Z,37.42
2018-10-05T11:13:30.866Z,37.73
2018-10-05T11:15:58.286Z,38.59
2018-10-05T11:18:25.649Z,38.74
2018-10-05T11:20:53.087Z,37.80
2018-10-05T11:23:20.520Z,36.53
2018-10-05T11:25:47.958Z,35.65
2018-10-05T11:28:15.524Z,37.14
2018-10-05T11:30:42.927Z,35.53
2018-10-05T11:33:10.372Z,38.04
2018-10-05T11:35:37.682Z,37.35
2018-10-05T11:38:06.337Z,35.82
2018-10-05T11:40:33.947Z,35.14
2018-10-05T11:43:02.156Z,34.60
2018-10-05T11:45:29.527Z,34.30
2018-10-05T11:47:56.816Z,34.52
2018-10-05T11:50:24.709Z,33.15
2018-10-05T11:52:52.217Z,34.75
2018-10-05T11:55:19.584Z,32.98
2018-10-05T11:57:46.886Z,33.90
2018-10-05T12:00:17.281Z,33.72
2018-10-05T12:02:45.540Z,33.53
2018-10-05T12:05:13.001Z,32.94
2018-10-05T12:07:40.209Z,33.28
2018-10-05T12:10:07.497Z,34.24
2018-10-05T12:12:34.803Z,32.05
2018-10-05T12:15:02.138Z,31.44
2018-10-05T12:17:36.267Z,31.68
2018-10-05T12:20:03.967Z,33.28
2018-10-05T12:22:31.569Z,32.58
2018-10-05T12:24:59.364Z,31.12
2018-10-05T12:27:26.952Z,30.51
2018-10-05T12:29:54.925Z,31.48
2018-10-05T12:32:22.428Z,32.93
2018-10-05T12:34:49.794Z,33.21
2018-10-05T12:37:17.183Z,32.70
2018-10-05T12:39:44.572Z,33.86
2018-10-05T12:42:12.530Z,32.86
2018-10-05T12:44:39.816Z,31.68
2018-10-05T12:47:07.338Z,32.20
2018-10-05T12:49:34.692Z,30.24
2018-10-05T12:52:10.568Z,30.98
2018-10-05T12:54:38.632Z,30.79
2018-10-05T12:57:06.016Z,31.43
2018-10-05T12:59:33.379Z,30.70
2018-10-05T13:02:00.648Z,31.06
2018-10-05T13:04:27.986Z,31.02
2018-10-05T13:06:55.202Z,30.96
2018-10-05T13:09:22.610Z,32.51
2018-10-05T13:11:50.107Z,33.60
2018-10-05T13:14:17.411Z,33.15
2018-10-05T13:16:44.745Z,31.99
2018-10-05T13:19:12.199Z,31.36
2018-10-05T13:21:39.593Z,32.70
2018-10-05T13:24:06.978Z,33.13
2018-10-05T13:26:35.227Z,32.30
2018-10-05T13:29:03.274Z,32.08
2018-10-05T13:31:32.204Z,32.56
2018-10-05T13:33:59.586Z,32.07
2018-10-05T13:36:26.794Z,31.78
2018-10-05T13:38:54.369Z,31.22
2018-10-05T13:41:21.624Z,32.29
2018-10-05T13:43:48.965Z,31.08
2018-10-05T13:46:16.332Z,31.95
2018-10-05T13:48:43.673Z,32.13
2018-10-05T13:51:11.720Z,32.02
2018-10-05T13:53:38.993Z,32.01
2018-10-05T13:56:06.937Z,32.24
2018-10-05T13:58:34.267Z,32.49
2018-10-05T14:01:01.567Z,32.74
2018-10-05T14:03:28.840Z,33.82
2018-10-05T14:05:56.261Z,32.21
2018-10-05T14:08:23.521Z,33.60
2018-10-05T14:10:50.998Z,33.61
2018-10-05T14:13:18.262Z,34.07
2018-10-05T14:15:45.568Z,33.33
2018-10-05T14:18:12.866Z,33.30
2018-10-05T14:20:40.340Z,32.69
2018-10-05T14:23:07.469Z,32.58
2018-10-05T14:25:35.466Z,32.48
2018-10-05T14:28:02.930Z,33.36
2018-10-05T14:30:30.452Z,33.41
2018-10-05T14:32:57.792Z,32.84
2018-10-05T14:35:25.059Z,32.61
2018-10-05T14:37:52.398Z,32.70
2018-10-05T14:40:19.743Z,33.23
2018-10-05T14:42:47.162Z,34.17
2018-10-05T14:45:14.447Z,33.80
2018-10-05T14:47:43.028Z,33.25
2018-10-05T14:50:10.450Z,33.61
2018-10-05T14:52:38.457Z,32.96
2018-10-05T14:55:05.872Z,32.65
2018-10-05T14:57:33.264Z,33.14
2018-10-05T15:00:00.561Z,32.94
2018-10-05T15:02:27.920Z,33.51
2018-10-05T15:04:55.769Z,30.06
2018-10-05T15:07:23.156Z,30.66
2018-10-05T15:09:50.475Z,32.54
2018-10-05T15:12:17.859Z,33.60
2018-10-05T15:14:45.161Z,34.15
2018-10-05T15:17:13.582Z,33.92
2018-10-05T15:19:41.005Z,33.91
2018-10-05T15:22:08.549Z,34.88
2018-10-05T15:24:35.846Z,34.29
2018-10-05T15:27:03.327Z,35.10
2018-10-05T15:29:30.739Z,37.10
2018-10-05T15:31:58.075Z,36.25
2018-10-05T15:34:25.433Z,37.34
2018-10-05T15:36:52.793Z,37.66
2018-10-05T15:39:20.229Z,36.48
2018-10-05T15:41:47.611Z,37.72
2018-10-05T15:44:14.951Z,38.87
2018-10-05T15:46:53.504Z,38.47
2018-10-05T15:49:20.823Z,37.90
2018-10-05T15:51:48.442Z,38.16
2018-10-05T15:54:15.790Z,38.50
2018-10-05T15:56:43.111Z,39.73
2018-10-05T15:59:10.566Z,38.82
2018-10-05T16:01:38.598Z,40.35
2018-10-05T16:04:05.986Z,39.90
2018-10-05T16:06:34.114Z,41.16
2018-10-05T16:09:01.570Z,41.84
2018-10-05T16:11:28.892Z,41.50
2018-10-05T16:13:56.229Z,41.85
2018-10-05T16:16:23.506Z,41.96
2018-10-05T16:18:50.820Z,43.41
2018-10-05T16:21:18.147Z,43.69
2018-10-05T16:23:45.557Z,44.78
2018-10-05T16:26:12.971Z,45.10
2018-10-05T16:28:40.285Z,44.48
2018-10-05T16:31:07.623Z,45.45
2018-10-05T16:33:35.039Z,46.51
2018-10-05T16:36:02.365Z,47.14
2018-10-05T16:38:29.658Z,46.18
2018-10-05T16:40:57.057Z,45.86
2018-10-05T16:43:24.539Z,47.29
2018-10-05T16:45:53.214Z,47.27
2018-10-05T16:48:20.620Z,47.04
2018-10-05T16:50:48.009Z,47.36
2018-10-05T16:53:15.403Z,48.02
2018-10-05T16:55:42.869Z,48.02
2018-10-05T16:58:10.263Z,48.89
2018-10-05T17:00:37.606Z,47.87
2018-10-05T17:03:07.020Z,48.70
2018-10-05T17:05:34.320Z,49.33
2018-10-05T17:08:01.744Z,49.69
2018-10-05T17:10:29.160Z,48.97
2018-10-05T17:12:56.506Z,50.18
2018-10-05T17:15:23.866Z,50.40
2018-10-05T17:17:51.204Z,49.96
2018-10-05T17:20:18.518Z,49.92
2018-10-05T17:22:45.816Z,49.98
2018-10-05T17:25:13.108Z,50.10
2018-10-05T17:27:40.458Z,50.18
2018-10-05T17:30:07.828Z,50.78
2018-10-05T17:32:35.270Z,50.18
2018-10-05T17:35:02.580Z,50.95
2018-10-05T17:37:29.903Z,50.15
2018-10-05T17:39:57.208Z,50.47
2018-10-05T17:42:24.540Z,50.71
2018-10-05T17:44:51.886Z,50.72
2018-10-05T17:47:19.197Z,51.09
2018-10-05T17:49:46.548Z,51.04
2018-10-05T17:52:13.843Z,51.08
2018-10-05T17:54:41.269Z,50.61
2018-10-05T17:57:08.578Z,51.10
2018-10-05T17:59:35.994Z,51.15
2018-10-05T18:02:03.321Z,50.90
2018-10-05T18:04:30.678Z,51.03
2018-10-05T18:06:58.077Z,51.80
2018-10-05T18:09:25.446Z,52.18
2018-10-05T18:11:52.907Z,52.39
2018-10-05T18:14:20.200Z,51.78
2018-10-05T18:16:47.639Z,52.00
2018-10-05T18:19:14.964Z,51.87
2018-10-05T18:21:42.495Z,52.19
2018-10-05T18:24:09.819Z,52.40
2018-10-05T18:26:37.125Z,52.65
2018-10-05T18:29:04.769Z,53.18
2018-10-05T18:31:32.083Z,53.08
2018-10-05T18:33:59.416Z,52.73
2018-10-05T18:36:26.679Z,52.60
2018-10-05T18:38:54.026Z,53.54
2018-10-05T18:41:21.416Z,51.93
2018-10-05T18:43:48.606Z,52.91
2018-10-05T18:46:15.963Z,54.25
2018-10-05T18:48:43.294Z,54.42
2018-10-05T18:51:10.627Z,53.98
2018-10-05T18:53:38.009Z,52.89
2018-10-05T18:56:16.780Z,53.19
2018-10-05T18:58:44.158Z,52.72
2018-10-05T19:01:11.458Z,52.58
2018-10-05T19:03:38.790Z,53.30
2018-10-05T19:06:06.106Z,53.78
2018-10-05T19:08:33.412Z,53.59
2018-10-05T19:11:00.706Z,53.86
2018-10-05T19:13:28.071Z,55.42
2018-10-05T19:15:55.554Z,53.59
2018-10-05T19:18:22.868Z,52.96
2018-10-05T19:20:50.194Z,53.19
2018-10-05T19:23:17.578Z,53.54
2018-10-05T19:25:44.926Z,53.06
2018-10-05T19:28:12.273Z,52.73
2018-10-05T19:30:39.649Z,52.24
2018-10-05T19:33:07.115Z,53.10
2018-10-05T19:35:34.449Z,52.14
2018-10-05T19:38:01.780Z,52.63
2018-10-05T19:40:29.118Z,52.54
2018-10-05T19:42:56.546Z,53.25
2018-10-05T19:45:23.900Z,52.53
2018-10-05T19:47:51.309Z,53.15
2018-10-05T19:50:19.200Z,52.66
2018-10-05T19:52:46.623Z,52.93
2018-10-05T19:55:13.953Z,53.02
2018-10-05T19:57:41.305Z,52.94
2018-10-05T20:00:08.767Z,53.38
2018-10-05T20:02:36.028Z,53.03
2018-10-05T20:05:03.370Z,53.01
2018-10-05T20:07:30.732Z,52.73
2018-10-05T20:09:58.156Z,53.53
2018-10-05T20:12:25.499Z,52.98
2018-10-05T20:14:52.840Z,53.73
2018-10-05T20:17:20.194Z,53.44
2018-10-05T20:19:47.489Z,52.97
2018-10-05T20:22:14.778Z,52.97
2018-10-05T20:24:42.076Z,52.81
2018-10-05T20:27:09.688Z,53.38
2018-10-05T20:29:37.027Z,53.69
2018-10-05T20:32:04.374Z,53.06
2018-10-05T20:34:31.773Z,52.95
2018-10-05T20:36:59.339Z,52.77
2018-10-05T20:39:26.506Z,53.06
2018-10-05T20:41:53.941Z,53.80
2018-10-05T20:44:21.304Z,53.60
2018-10-05T20:46:48.648Z,53.32
2018-10-05T20:49:16.049Z,53.17
2018-10-05T20:51:43.433Z,53.00
2018-10-05T20:54:10.765Z,52.89
2018-10-05T20:56:38.168Z,53.01
2018-10-05T20:59:05.504Z,53.86
2018-10-05T21:01:32.942Z,52.83
2018-10-05T21:04:00.199Z,54.07
2018-10-05T21:06:27.510Z,54.38
2018-10-05T21:08:54.837Z,54.23
2018-10-05T21:11:22.230Z,53.64
2018-10-05T21:13:49.564Z,55.16
2018-10-05T21:16:16.925Z,53.85
2018-10-05T21:18:44.325Z,54.11
2018-10-05T21:21:11.637Z,54.03
2018-10-05T21:23:38.981Z,54.29
2018-10-05T21:26:06.373Z,55.90
2018-10-05T21:28:33.716Z,54.35
2018-10-05T21:31:01.020Z,54.17
2018-10-05T21:33:28.457Z,54.37
2018-10-05T21:35:55.728Z,54.11
2018-10-05T21:38:23.136Z,54.90
2018-10-05T21:40:50.436Z,55.01
2018-10-05T21:43:17.710Z,54.53
2018-10-05T21:45:44.996Z,54.48
2018-10-05T21:48:12.314Z,56.33
2018-10-05T21:50:39.601Z,54.76
2018-10-05T21:53:07.005Z,54.18
2018-10-05T21:55:34.302Z,54.27
2018-10-05T21:58:01.699Z,54.02
2018-10-05T22:00:34.792Z,54.84
2018-10-05T22:03:02.045Z,54.48
2018-10-05T22:05:29.361Z,54.54
2018-10-05T22:07:56.605Z,54.41
2018-10-05T22:10:23.876Z,53.70
2018-10-05T22:12:51.144Z,53.94
2018-10-05T22:15:18.472Z,54.68
2018-10-05T22:17:45.755Z,54.30
2018-10-05T22:20:13.068Z,54.27
2018-10-05T22:22:40.315Z,54.95
2018-10-05T22:25:07.623Z,54.09
2018-10-05T22:27:34.928Z,55.10
2018-10-05T22:30:02.245Z,54.48
2018-10-05T22:32:29.605Z,54.66
2018-10-05T22:34:56.907Z,54.55
2018-10-05T22:37:24.143Z,53.83
2018-10-05T22:39:51.405Z,54.22
2018-10-05T22:42:18.717Z,56.37
2018-10-05T22:44:45.995Z,55.67
2018-10-05T22:47:13.297Z,55.08
2018-10-05T22:49:40.589Z,54.39
2018-10-05T22:52:07.851Z,54.73
2018-10-05T22:54:35.151Z,54.61
2018-10-05T22:57:02.429Z,54.38
2018-10-05T22:59:29.722Z,54.59
2018-10-05T23:01:57.012Z,56.03
2018-10-05T23:04:24.291Z,55.02
2018-10-05T23:06:51.606Z,54.50
2018-10-05T23:09:18.861Z,56.15
2018-10-05T23:11:46.175Z,55.49
2018-10-05T23:14:13.464Z,55.50
2018-10-05T23:16:40.866Z,55.31
2018-10-05T23:19:08.138Z,54.90
2018-10-05T23:21:35.423Z,55.04
2018-10-05T23:24:02.720Z,54.95
2018-10-05T23:26:30.051Z,55.49
2018-10-05T23:28:57.318Z,55.65
2018-10-05T23:31:24.680Z,55.29
2018-10-05T23:33:51.956Z,55.54
2018-10-05T23:36:19.226Z,55.61
2018-10-05T23:38:46.502Z,55.51
2018-10-05T23:41:13.853Z,54.82
2018-10-05T23:43:41.106Z,55.75
2018-10-05T23:46:08.534Z,55.42
2018-10-05T23:48:35.952Z,55.40
2018-10-05T23:51:03.304Z,55.04
2018-10-05T23:53:30.580Z,55.21
2018-10-05T23:55:57.813Z,55.33
2018-10-05T23:58:25.116Z,55.64
